sensor_id;sensor_type;location;lat;lon;timestamp;temperature;humidity
32502;DHT22;18952;52.516;13.460;2023-01-05T00:01:13;8.40;99.90
32502;DHT22;18952;52.516;13.460;2023-01-05T00:03:40;8.40;99.90
32502;DHT22;18952;52.516;13.460;2023-01-05T00:06:11;8.40;99.90
32502;DHT22;18952;52.516;13.460;2023-01-05T00:08:39;8.40;99.90
32502;DHT22;18952;52.516;13.460;2023-01-05T00:11:16;8.40;99.90
32502;DHT22;18952;52.516;13.460;2023-01-05T00:13:43;8.40;99.90
32502;DHT22;18952;52.516;13.460;2023-01-05T00:16:12;8.30;99.90
32502;DHT22;18952;52.516;13.460;2023-01-05T00:18:39;8.30;99.90
32502;DHT22;18952;52.516;13.460;2023-01-05T00:21:13;8.30;99.90
32502;DHT22;18952;52.516;13.460;2023-01-05T00:23:41;8.30;99.90
32502;DHT22;18952;52.516;13.460;2023-01-05T00:26:07;8.30;99.90
32502;DHT22;18952;52.516;13.460;2023-01-05T00:28:34;8.40;99.90
32502;DHT22;18952;52.516;13.460;2023-01-05T00:31:01;8.30;99.90
32502;DHT22;18952;52.516;13.460;2023-01-05T00:33:28;8.40;99.90
32502;DHT22;18952;52.516;13.460;2023-01-05T00:35:55;8.40;99.90
32502;DHT22;18952;52.516;13.460;2023-01-05T00:38:22;8.40;99.90
32502;DHT22;18952;52.516;13.460;2023-01-05T00:40:49;8.40;99.90
32502;DHT22;18952;52.516;13.460;2023-01-05T00:43:17;8.40;99.90
32502;DHT22;18952;52.516;13.460;2023-01-05T00:45:44;8.40;99.90
32502;DHT22;18952;52.516;13.460;2023-01-05T00:48:11;8.50;99.90
32502;DHT22;18952;52.516;13.460;2023-01-05T00:50:38;8.50;99.90
32502;DHT22;18952;52.516;13.460;2023-01-05T00:53:06;8.50;99.90
32502;DHT22;18952;52.516;13.460;2023-01-05T00:55:33;8.50;99.90
32502;DHT22;18952;52.516;13.460;2023-01-05T00:58:00;8.50;99.90
32502;DHT22;18952;52.516;13.460;2023-01-05T01:00:27;8.50;99.90
32502;DHT22;18952;52.516;13.460;2023-01-05T01:02:54;8.50;99.90
32502;DHT22;18952;52.516;13.460;2023-01-05T01:05:21;8.50;99.90
32502;DHT22;18952;52.516;13.460;2023-01-05T01:07:48;8.50;99.90
32502;DHT22;18952;52.516;13.460;2023-01-05T01:10:15;8.50;99.90
32502;DHT22;18952;52.516;13.460;2023-01-05T01:12:42;8.50;99.90
32502;DHT22;18952;52.516;13.460;2023-01-05T01:15:10;8.50;99.90
32502;DHT22;18952;52.516;13.460;2023-01-05T01:17:37;8.50;99.90
32502;DHT22;18952;52.516;13.460;2023-01-05T01:20:04;8.60;99.90
32502;DHT22;18952;52.516;13.460;2023-01-05T01:22:31;8.60;99.90
32502;DHT22;18952;52.516;13.460;2023-01-05T01:24:58;8.60;99.90
32502;DHT22;18952;52.516;13.460;2023-01-05T01:27:25;8.60;99.90
32502;DHT22;18952;52.516;13.460;2023-01-05T01:29:52;8.60;99.90
32502;DHT22;18952;52.516;13.460;2023-01-05T01:32:19;8.60;99.90
32502;DHT22;18952;52.516;13.460;2023-01-05T01:34:46;8.60;99.90
32502;DHT22;18952;52.516;13.460;2023-01-05T01:37:13;8.60;99.90
32502;DHT22;18952;52.516;13.460;2023-01-05T01:39:42;8.60;99.90
32502;DHT22;18952;52.516;13.460;2023-01-05T01:42:16;8.60;99.90
32502;DHT22;18952;52.516;13.460;2023-01-05T01:47:30;8.60;99.90
32502;DHT22;18952;52.516;13.460;2023-01-05T01:50:03;8.60;99.90
32502;DHT22;18952;52.516;13.460;2023-01-05T01:52:33;8.60;99.90
32502;DHT22;18952;52.516;13.460;2023-01-05T01:55:03;8.60;99.90
32502;DHT22;18952;52.516;13.460;2023-01-05T01:57:32;8.50;99.90
32502;DHT22;18952;52.516;13.460;2023-01-05T02:00:00;8.50;99.90
32502;DHT22;18952;52.516;13.460;2023-01-05T02:02:28;8.50;99.90
32502;DHT22;18952;52.516;13.460;2023-01-05T02:05:00;8.50;99.90
32502;DHT22;18952;52.516;13.460;2023-01-05T02:07:33;8.50;99.90
32502;DHT22;18952;52.516;13.460;2023-01-05T02:10:02;8.60;99.90
32502;DHT22;18952;52.516;13.460;2023-01-05T02:15:27;8.60;99.90
32502;DHT22;18952;52.516;13.460;2023-01-05T02:31:21;8.70;99.90
32502;DHT22;18952;52.516;13.460;2023-01-05T02:36:55;8.60;99.90
32502;DHT22;18952;52.516;13.460;2023-01-05T02:39:47;8.60;99.90
32502;DHT22;18952;52.516;13.460;2023-01-05T02:42:22;8.60;99.90
32502;DHT22;18952;52.516;13.460;2023-01-05T02:44:50;8.60;99.90
32502;DHT22;18952;52.516;13.460;2023-01-05T02:49:58;8.70;99.90
32502;DHT22;18952;52.516;13.460;2023-01-05T02:52:27;8.70;99.90
32502;DHT22;18952;52.516;13.460;2023-01-05T02:55:01;8.70;99.90
32502;DHT22;18952;52.516;13.460;2023-01-05T02:57:36;8.70;99.90
32502;DHT22;18952;52.516;13.460;2023-01-05T03:00:05;8.70;99.90
32502;DHT22;18952;52.516;13.460;2023-01-05T03:02:32;8.60;99.90
32502;DHT22;18952;52.516;13.460;2023-01-05T03:05:12;8.60;99.90
32502;DHT22;18952;52.516;13.460;2023-01-05T03:07:42;8.70;99.90
32502;DHT22;18952;52.516;13.460;2023-01-05T03:10:10;8.80;99.90
32502;DHT22;18952;52.516;13.460;2023-01-05T03:12:37;8.80;99.90
32502;DHT22;18952;52.516;13.460;2023-01-05T03:17:45;8.70;99.90
32502;DHT22;18952;52.516;13.460;2023-01-05T03:20:15;8.70;99.90
32502;DHT22;18952;52.516;13.460;2023-01-05T03:22:45;8.70;99.90
32502;DHT22;18952;52.516;13.460;2023-01-05T03:25:17;8.80;99.90
32502;DHT22;18952;52.516;13.460;2023-01-05T03:27:46;8.80;99.90
32502;DHT22;18952;52.516;13.460;2023-01-05T03:30:14;8.80;99.90
32502;DHT22;18952;52.516;13.460;2023-01-05T03:32:48;8.80;99.90
32502;DHT22;18952;52.516;13.460;2023-01-05T03:35:21;8.80;99.90
32502;DHT22;18952;52.516;13.460;2023-01-05T03:38:05;8.80;99.90
32502;DHT22;18952;52.516;13.460;2023-01-05T03:40:34;8.80;99.90
32502;DHT22;18952;52.516;13.460;2023-01-05T03:43:03;8.90;99.90
32502;DHT22;18952;52.516;13.460;2023-01-05T03:45:40;8.80;99.90
32502;DHT22;18952;52.516;13.460;2023-01-05T03:48:07;8.80;99.90
32502;DHT22;18952;52.516;13.460;2023-01-05T03:50:35;8.80;99.90
32502;DHT22;18952;52.516;13.460;2023-01-05T03:53:02;8.80;99.90
32502;DHT22;18952;52.516;13.460;2023-01-05T03:55:29;8.80;99.90
32502;DHT22;18952;52.516;13.460;2023-01-05T03:57:56;8.80;99.90
32502;DHT22;18952;52.516;13.460;2023-01-05T04:00:23;8.70;99.90
32502;DHT22;18952;52.516;13.460;2023-01-05T04:02:51;8.60;99.90
32502;DHT22;18952;52.516;13.460;2023-01-05T04:05:18;8.50;99.90
32502;DHT22;18952;52.516;13.460;2023-01-05T04:07:45;8.50;99.90
32502;DHT22;18952;52.516;13.460;2023-01-05T04:10:12;8.40;99.90
32502;DHT22;18952;52.516;13.460;2023-01-05T04:12:39;8.40;99.90
32502;DHT22;18952;52.516;13.460;2023-01-05T04:15:06;8.30;99.90
32502;DHT22;18952;52.516;13.460;2023-01-05T04:17:33;8.20;99.90
32502;DHT22;18952;52.516;13.460;2023-01-05T04:20:00;8.20;99.90
32502;DHT22;18952;52.516;13.460;2023-01-05T04:22:27;8.20;99.90
32502;DHT22;18952;52.516;13.460;2023-01-05T04:24:54;8.20;99.90
32502;DHT22;18952;52.516;13.460;2023-01-05T04:27:21;8.20;99.90
32502;DHT22;18952;52.516;13.460;2023-01-05T04:29:47;8.20;99.90
32502;DHT22;18952;52.516;13.460;2023-01-05T04:32:15;8.20;99.90
32502;DHT22;18952;52.516;13.460;2023-01-05T04:34:41;8.20;99.90
32502;DHT22;18952;52.516;13.460;2023-01-05T04:37:08;8.10;99.90
32502;DHT22;18952;52.516;13.460;2023-01-05T04:39:35;8.10;99.90
32502;DHT22;18952;52.516;13.460;2023-01-05T04:42:02;8.10;99.90
32502;DHT22;18952;52.516;13.460;2023-01-05T04:44:29;8.00;99.90
32502;DHT22;18952;52.516;13.460;2023-01-05T04:46:56;7.90;99.90
32502;DHT22;18952;52.516;13.460;2023-01-05T04:49:23;7.90;99.90
32502;DHT22;18952;52.516;13.460;2023-01-05T04:51:49;7.90;99.90
32502;DHT22;18952;52.516;13.460;2023-01-05T04:54:16;7.90;99.90
32502;DHT22;18952;52.516;13.460;2023-01-05T04:56:43;8.00;99.90
32502;DHT22;18952;52.516;13.460;2023-01-05T04:59:10;8.00;99.90
32502;DHT22;18952;52.516;13.460;2023-01-05T05:01:37;8.00;99.90
32502;DHT22;18952;52.516;13.460;2023-01-05T05:04:05;8.00;99.90
32502;DHT22;18952;52.516;13.460;2023-01-05T05:06:32;8.00;99.90
32502;DHT22;18952;52.516;13.460;2023-01-05T05:08:59;8.00;99.90
32502;DHT22;18952;52.516;13.460;2023-01-05T05:11:26;7.90;99.90
32502;DHT22;18952;52.516;13.460;2023-01-05T05:13:53;7.90;99.90
32502;DHT22;18952;52.516;13.460;2023-01-05T05:16:19;8.00;99.90
32502;DHT22;18952;52.516;13.460;2023-01-05T05:18:46;7.90;99.90
32502;DHT22;18952;52.516;13.460;2023-01-05T05:21:13;7.90;99.90
32502;DHT22;18952;52.516;13.460;2023-01-05T05:23:40;7.90;99.90
32502;DHT22;18952;52.516;13.460;2023-01-05T05:26:07;8.00;99.90
32502;DHT22;18952;52.516;13.460;2023-01-05T05:28:34;7.90;99.90
32502;DHT22;18952;52.516;13.460;2023-01-05T05:31:01;7.90;99.90
32502;DHT22;18952;52.516;13.460;2023-01-05T05:33:28;7.90;99.90
32502;DHT22;18952;52.516;13.460;2023-01-05T05:35:55;7.80;99.90
32502;DHT22;18952;52.516;13.460;2023-01-05T05:38:22;7.80;99.90
32502;DHT22;18952;52.516;13.460;2023-01-05T05:40:49;7.70;99.90
32502;DHT22;18952;52.516;13.460;2023-01-05T05:43:16;7.70;99.90
32502;DHT22;18952;52.516;13.460;2023-01-05T05:45:43;7.70;99.90
32502;DHT22;18952;52.516;13.460;2023-01-05T05:48:16;7.70;99.90
32502;DHT22;18952;52.516;13.460;2023-01-05T05:50:43;7.70;99.90
32502;DHT22;18952;52.516;13.460;2023-01-05T05:53:11;7.70;99.90
32502;DHT22;18952;52.516;13.460;2023-01-05T05:55:38;7.70;99.90
32502;DHT22;18952;52.516;13.460;2023-01-05T05:58:05;7.70;99.90
32502;DHT22;18952;52.516;13.460;2023-01-05T06:00:32;7.70;99.90
32502;DHT22;18952;52.516;13.460;2023-01-05T06:02:59;7.70;99.90
32502;DHT22;18952;52.516;13.460;2023-01-05T06:05:27;7.70;99.90
32502;DHT22;18952;52.516;13.460;2023-01-05T06:07:54;7.70;99.90
32502;DHT22;18952;52.516;13.460;2023-01-05T06:10:21;7.60;99.90
32502;DHT22;18952;52.516;13.460;2023-01-05T06:12:48;7.50;99.90
32502;DHT22;18952;52.516;13.460;2023-01-05T06:15:15;7.40;99.90
32502;DHT22;18952;52.516;13.460;2023-01-05T06:17:42;7.30;99.90
32502;DHT22;18952;52.516;13.460;2023-01-05T06:20:11;7.30;99.90
32502;DHT22;18952;52.516;13.460;2023-01-05T06:22:38;7.30;99.90
32502;DHT22;18952;52.516;13.460;2023-01-05T06:25:05;7.20;99.90
32502;DHT22;18952;52.516;13.460;2023-01-05T06:27:32;7.20;99.90
32502;DHT22;18952;52.516;13.460;2023-01-05T06:29:59;7.10;99.90
32502;DHT22;18952;52.516;13.460;2023-01-05T06:32:26;7.10;99.90
32502;DHT22;18952;52.516;13.460;2023-01-05T06:34:53;7.00;99.90
32502;DHT22;18952;52.516;13.460;2023-01-05T06:37:20;7.00;99.90
32502;DHT22;18952;52.516;13.460;2023-01-05T06:39:47;6.90;99.90
32502;DHT22;18952;52.516;13.460;2023-01-05T06:42:14;6.90;99.90
32502;DHT22;18952;52.516;13.460;2023-01-05T06:44:47;6.90;99.90
32502;DHT22;18952;52.516;13.460;2023-01-05T06:47:14;6.90;99.90
32502;DHT22;18952;52.516;13.460;2023-01-05T06:49:40;7.00;99.90
32502;DHT22;18952;52.516;13.460;2023-01-05T06:52:08;7.00;99.90
32502;DHT22;18952;52.516;13.460;2023-01-05T06:54:42;7.20;99.90
32502;DHT22;18952;52.516;13.460;2023-01-05T06:57:09;7.30;99.90
32502;DHT22;18952;52.516;13.460;2023-01-05T06:59:36;7.30;99.90
32502;DHT22;18952;52.516;13.460;2023-01-05T07:02:03;7.30;99.90
32502;DHT22;18952;52.516;13.460;2023-01-05T07:04:31;7.30;99.90
32502;DHT22;18952;52.516;13.460;2023-01-05T07:06:59;7.40;99.90
32502;DHT22;18952;52.516;13.460;2023-01-05T07:09:26;7.40;99.90
32502;DHT22;18952;52.516;13.460;2023-01-05T07:11:53;7.40;99.90
32502;DHT22;18952;52.516;13.460;2023-01-05T07:14:20;7.40;99.90
32502;DHT22;18952;52.516;13.460;2023-01-05T07:16:47;7.40;99.90
32502;DHT22;18952;52.516;13.460;2023-01-05T07:19:14;7.40;99.90
32502;DHT22;18952;52.516;13.460;2023-01-05T07:21:40;7.40;99.90
32502;DHT22;18952;52.516;13.460;2023-01-05T07:24:08;7.40;99.90
32502;DHT22;18952;52.516;13.460;2023-01-05T07:26:35;7.40;99.90
32502;DHT22;18952;52.516;13.460;2023-01-05T07:29:02;7.40;99.90
32502;DHT22;18952;52.516;13.460;2023-01-05T07:31:29;7.40;99.90
32502;DHT22;18952;52.516;13.460;2023-01-05T07:33:56;7.40;99.90
32502;DHT22;18952;52.516;13.460;2023-01-05T07:36:23;7.40;99.90
32502;DHT22;18952;52.516;13.460;2023-01-05T07:38:51;7.50;99.90
32502;DHT22;18952;52.516;13.460;2023-01-05T07:41:18;7.40;99.90
32502;DHT22;18952;52.516;13.460;2023-01-05T07:43:48;7.40;99.90
32502;DHT22;18952;52.516;13.460;2023-01-05T07:46:14;7.40;99.90
32502;DHT22;18952;52.516;13.460;2023-01-05T07:48:45;7.40;99.90
32502;DHT22;18952;52.516;13.460;2023-01-05T07:51:12;7.40;99.90
32502;DHT22;18952;52.516;13.460;2023-01-05T07:53:39;7.40;99.90
32502;DHT22;18952;52.516;13.460;2023-01-05T07:56:11;7.40;99.90
32502;DHT22;18952;52.516;13.460;2023-01-05T07:58:40;7.30;99.90
32502;DHT22;18952;52.516;13.460;2023-01-05T08:01:08;7.40;99.90
32502;DHT22;18952;52.516;13.460;2023-01-05T08:03:36;7.30;99.90
32502;DHT22;18952;52.516;13.460;2023-01-05T08:06:07;7.30;99.90
32502;DHT22;18952;52.516;13.460;2023-01-05T08:08:35;7.30;99.90
32502;DHT22;18952;52.516;13.460;2023-01-05T08:11:07;7.40;99.90
32502;DHT22;18952;52.516;13.460;2023-01-05T08:13:35;7.40;99.90
32502;DHT22;18952;52.516;13.460;2023-01-05T08:16:02;7.40;99.90
32502;DHT22;18952;52.516;13.460;2023-01-05T08:18:29;7.40;99.90
32502;DHT22;18952;52.516;13.460;2023-01-05T08:20:58;7.30;99.90
32502;DHT22;18952;52.516;13.460;2023-01-05T08:23:26;7.40;99.90
32502;DHT22;18952;52.516;13.460;2023-01-05T08:25:54;7.40;99.90
32502;DHT22;18952;52.516;13.460;2023-01-05T08:28:22;7.40;99.90
32502;DHT22;18952;52.516;13.460;2023-01-05T08:31:04;7.40;99.90
32502;DHT22;18952;52.516;13.460;2023-01-05T08:33:31;7.40;99.90
32502;DHT22;18952;52.516;13.460;2023-01-05T08:35:59;7.40;99.90
32502;DHT22;18952;52.516;13.460;2023-01-05T08:38:27;7.40;99.90
32502;DHT22;18952;52.516;13.460;2023-01-05T08:40:57;7.30;99.90
32502;DHT22;18952;52.516;13.460;2023-01-05T08:43:24;7.30;99.90
32502;DHT22;18952;52.516;13.460;2023-01-05T08:45:51;7.30;99.90
32502;DHT22;18952;52.516;13.460;2023-01-05T08:48:18;7.30;99.90
32502;DHT22;18952;52.516;13.460;2023-01-05T08:50:45;7.30;99.90
32502;DHT22;18952;52.516;13.460;2023-01-05T08:53:14;7.30;99.90
32502;DHT22;18952;52.516;13.460;2023-01-05T08:55:43;7.30;99.90
32502;DHT22;18952;52.516;13.460;2023-01-05T08:58:10;7.30;99.90
32502;DHT22;18952;52.516;13.460;2023-01-05T09:00:39;7.30;99.90
32502;DHT22;18952;52.516;13.460;2023-01-05T09:03:08;7.30;99.90
32502;DHT22;18952;52.516;13.460;2023-01-05T09:05:35;7.30;99.90
32502;DHT22;18952;52.516;13.460;2023-01-05T09:08:02;7.30;99.90
32502;DHT22;18952;52.516;13.460;2023-01-05T09:10:29;7.20;99.90
32502;DHT22;18952;52.516;13.460;2023-01-05T09:12:58;7.20;99.90
32502;DHT22;18952;52.516;13.460;2023-01-05T09:15:25;7.20;99.90
32502;DHT22;18952;52.516;13.460;2023-01-05T09:17:52;7.20;99.90
32502;DHT22;18952;52.516;13.460;2023-01-05T09:20:20;7.20;99.90
32502;DHT22;18952;52.516;13.460;2023-01-05T09:22:48;7.30;99.90
32502;DHT22;18952;52.516;13.460;2023-01-05T09:25:15;7.20;99.90
32502;DHT22;18952;52.516;13.460;2023-01-05T09:27:42;7.20;99.90
32502;DHT22;18952;52.516;13.460;2023-01-05T09:30:09;7.20;99.90
32502;DHT22;18952;52.516;13.460;2023-01-05T09:32:36;7.30;99.90
32502;DHT22;18952;52.516;13.460;2023-01-05T09:35:04;7.30;99.90
32502;DHT22;18952;52.516;13.460;2023-01-05T09:37:31;7.30;99.90
32502;DHT22;18952;52.516;13.460;2023-01-05T09:39:58;7.30;99.90
32502;DHT22;18952;52.516;13.460;2023-01-05T09:42:26;7.30;99.90
32502;DHT22;18952;52.516;13.460;2023-01-05T09:44:58;7.20;99.90
32502;DHT22;18952;52.516;13.460;2023-01-05T09:47:35;7.40;99.90
32502;DHT22;18952;52.516;13.460;2023-01-05T09:50:28;7.40;99.90
32502;DHT22;18952;52.516;13.460;2023-01-05T09:52:58;7.40;99.90
32502;DHT22;18952;52.516;13.460;2023-01-05T09:55:28;7.50;99.90
32502;DHT22;18952;52.516;13.460;2023-01-05T09:58:05;7.50;99.90
32502;DHT22;18952;52.516;13.460;2023-01-05T10:00:33;7.60;99.90
32502;DHT22;18952;52.516;13.460;2023-01-05T10:03:07;7.60;99.90
32502;DHT22;18952;52.516;13.460;2023-01-05T10:05:45;7.70;99.90
32502;DHT22;18952;52.516;13.460;2023-01-05T10:08:31;7.80;99.90
32502;DHT22;18952;52.516;13.460;2023-01-05T10:11:04;7.80;99.90
32502;DHT22;18952;52.516;13.460;2023-01-05T10:13:33;7.80;99.90
32502;DHT22;18952;52.516;13.460;2023-01-05T10:16:03;7.90;99.90
32502;DHT22;18952;52.516;13.460;2023-01-05T10:18:31;7.90;99.90
32502;DHT22;18952;52.516;13.460;2023-01-05T10:21:10;7.90;99.90
32502;DHT22;18952;52.516;13.460;2023-01-05T10:23:51;8.00;99.90
32502;DHT22;18952;52.516;13.460;2023-01-05T10:26:36;8.00;99.90
32502;DHT22;18952;52.516;13.460;2023-01-05T10:29:46;8.00;99.90
32502;DHT22;18952;52.516;13.460;2023-01-05T10:32:24;8.00;99.90
32502;DHT22;18952;52.516;13.460;2023-01-05T10:41:00;8.00;99.90
32502;DHT22;18952;52.516;13.460;2023-01-05T10:46:02;8.00;99.90
32502;DHT22;18952;52.516;13.460;2023-01-05T10:48:51;8.00;99.90
32502;DHT22;18952;52.516;13.460;2023-01-05T10:51:18;8.10;99.90
32502;DHT22;18952;52.516;13.460;2023-01-05T10:53:45;8.10;99.90
32502;DHT22;18952;52.516;13.460;2023-01-05T10:56:31;8.10;99.90
32502;DHT22;18952;52.516;13.460;2023-01-05T10:59:08;8.20;99.90
32502;DHT22;18952;52.516;13.460;2023-01-05T11:01:36;8.20;99.90
32502;DHT22;18952;52.516;13.460;2023-01-05T11:04:07;8.20;99.90
32502;DHT22;18952;52.516;13.460;2023-01-05T11:07:03;8.20;99.90
32502;DHT22;18952;52.516;13.460;2023-01-05T11:09:31;8.30;99.90
32502;DHT22;18952;52.516;13.460;2023-01-05T11:12:00;8.30;99.90
32502;DHT22;18952;52.516;13.460;2023-01-05T11:14:29;8.30;99.90
32502;DHT22;18952;52.516;13.460;2023-01-05T11:17:05;8.30;99.90
32502;DHT22;18952;52.516;13.460;2023-01-05T11:19:42;8.30;99.90
32502;DHT22;18952;52.516;13.460;2023-01-05T11:22:30;8.30;99.90
32502;DHT22;18952;52.516;13.460;2023-01-05T11:27:40;8.20;99.90
32502;DHT22;18952;52.516;13.460;2023-01-05T11:30:20;8.30;99.90
32502;DHT22;18952;52.516;13.460;2023-01-05T11:32:47;8.30;99.90
32502;DHT22;18952;52.516;13.460;2023-01-05T11:35:20;8.20;99.90
32502;DHT22;18952;52.516;13.460;2023-01-05T11:37:50;8.30;99.90
32502;DHT22;18952;52.516;13.460;2023-01-05T11:40:18;8.20;99.90
32502;DHT22;18952;52.516;13.460;2023-01-05T11:42:47;8.30;99.90
32502;DHT22;18952;52.516;13.460;2023-01-05T11:45:20;8.20;99.90
32502;DHT22;18952;52.516;13.460;2023-01-05T11:48:00;8.20;99.90
32502;DHT22;18952;52.516;13.460;2023-01-05T11:50:51;8.30;99.90
32502;DHT22;18952;52.516;13.460;2023-01-05T11:56:03;8.30;99.90
32502;DHT22;18952;52.516;13.460;2023-01-05T11:58:33;8.30;99.90
32502;DHT22;18952;52.516;13.460;2023-01-05T12:06:45;8.20;99.90
32502;DHT22;18952;52.516;13.460;2023-01-05T12:09:33;8.20;99.90
32502;DHT22;18952;52.516;13.460;2023-01-05T12:17:15;8.30;99.90
32502;DHT22;18952;52.516;13.460;2023-01-05T12:25:43;8.50;99.90
32502;DHT22;18952;52.516;13.460;2023-01-05T12:28:18;8.60;99.90
32502;DHT22;18952;52.516;13.460;2023-01-05T12:34:20;8.70;99.90
32502;DHT22;18952;52.516;13.460;2023-01-05T12:37:21;8.60;99.90
32502;DHT22;18952;52.516;13.460;2023-01-05T12:45:50;8.60;99.90
32502;DHT22;18952;52.516;13.460;2023-01-05T12:48:40;8.50;99.90
32502;DHT22;18952;52.516;13.460;2023-01-05T12:56:59;8.70;99.90
32502;DHT22;18952;52.516;13.460;2023-01-05T13:02:14;8.60;99.90
32502;DHT22;18952;52.516;13.460;2023-01-05T13:08:05;8.50;99.90
32502;DHT22;18952;52.516;13.460;2023-01-05T13:13:47;8.60;99.90
32502;DHT22;18952;52.516;13.460;2023-01-05T13:16:22;8.40;99.90
32502;DHT22;18952;52.516;13.460;2023-01-05T13:19:14;8.40;99.90
32502;DHT22;18952;52.516;13.460;2023-01-05T13:21:45;8.50;99.90
32502;DHT22;18952;52.516;13.460;2023-01-05T13:24:33;8.50;99.90
32502;DHT22;18952;52.516;13.460;2023-01-05T13:27:01;8.50;99.90
32502;DHT22;18952;52.516;13.460;2023-01-05T13:29:40;8.60;99.90
32502;DHT22;18952;52.516;13.460;2023-01-05T13:32:21;8.50;99.90
32502;DHT22;18952;52.516;13.460;2023-01-05T13:35:00;8.50;99.90
32502;DHT22;18952;52.516;13.460;2023-01-05T13:46:47;8.30;99.90
32502;DHT22;18952;52.516;13.460;2023-01-05T13:55:02;8.00;99.90
32502;DHT22;18952;52.516;13.460;2023-01-05T13:57:36;8.00;99.90
32502;DHT22;18952;52.516;13.460;2023-01-05T14:00:23;7.90;99.90
32502;DHT22;18952;52.516;13.460;2023-01-05T14:03:05;7.90;99.90
32502;DHT22;18952;52.516;13.460;2023-01-05T14:05:45;7.70;99.90
32502;DHT22;18952;52.516;13.460;2023-01-05T14:08:22;7.70;99.90
32502;DHT22;18952;52.516;13.460;2023-01-05T14:11:15;7.60;99.90
32502;DHT22;18952;52.516;13.460;2023-01-05T14:14:02;7.60;99.90
32502;DHT22;18952;52.516;13.460;2023-01-05T14:16:51;7.50;99.90
32502;DHT22;18952;52.516;13.460;2023-01-05T14:22:03;7.30;99.90
32502;DHT22;18952;52.516;13.460;2023-01-05T14:24:41;7.30;99.90
32502;DHT22;18952;52.516;13.460;2023-01-05T14:27:15;7.30;99.90
32502;DHT22;18952;52.516;13.460;2023-01-05T14:29:57;7.20;99.90
32502;DHT22;18952;52.516;13.460;2023-01-05T14:32:38;7.10;99.90
32502;DHT22;18952;52.516;13.460;2023-01-05T14:35:22;7.20;99.90
32502;DHT22;18952;52.516;13.460;2023-01-05T14:38:00;7.10;99.90
32502;DHT22;18952;52.516;13.460;2023-01-05T14:40:50;7.00;99.90
32502;DHT22;18952;52.516;13.460;2023-01-05T14:43:33;7.00;99.90
32502;DHT22;18952;52.516;13.460;2023-01-05T14:46:09;7.00;99.90
32502;DHT22;18952;52.516;13.460;2023-01-05T14:51:31;6.90;99.90
32502;DHT22;18952;52.516;13.460;2023-01-05T14:54:00;6.90;99.90
32502;DHT22;18952;52.516;13.460;2023-01-05T14:56:33;7.00;99.90
32502;DHT22;18952;52.516;13.460;2023-01-05T14:59:25;6.90;99.90
32502;DHT22;18952;52.516;13.460;2023-01-05T15:01:54;6.90;99.90
32502;DHT22;18952;52.516;13.460;2023-01-05T15:04:29;6.80;99.90
32502;DHT22;18952;52.516;13.460;2023-01-05T15:15:42;6.70;99.90
32502;DHT22;18952;52.516;13.460;2023-01-05T15:18:24;6.70;99.90
32502;DHT22;18952;52.516;13.460;2023-01-05T15:29:50;6.70;99.90
32502;DHT22;18952;52.516;13.460;2023-01-05T15:32:26;6.60;99.90
32502;DHT22;18952;52.516;13.460;2023-01-05T15:35:23;6.60;99.90
32502;DHT22;18952;52.516;13.460;2023-01-05T15:37:52;6.60;99.90
32502;DHT22;18952;52.516;13.460;2023-01-05T15:42:51;6.50;99.90
32502;DHT22;18952;52.516;13.460;2023-01-05T15:45:22;6.60;99.90
32502;DHT22;18952;52.516;13.460;2023-01-05T15:47:52;6.50;99.90
32502;DHT22;18952;52.516;13.460;2023-01-05T15:50:34;6.50;99.90
32502;DHT22;18952;52.516;13.460;2023-01-05T15:53:02;6.40;99.90
32502;DHT22;18952;52.516;13.460;2023-01-05T15:55:33;6.40;99.90
32502;DHT22;18952;52.516;13.460;2023-01-05T15:58:13;6.40;99.90
32502;DHT22;18952;52.516;13.460;2023-01-05T16:00:41;6.50;99.90
32502;DHT22;18952;52.516;13.460;2023-01-05T16:03:41;6.50;99.90
32502;DHT22;18952;52.516;13.460;2023-01-05T16:06:28;6.50;99.90
32502;DHT22;18952;52.516;13.460;2023-01-05T16:08:59;6.50;99.90
32502;DHT22;18952;52.516;13.460;2023-01-05T16:11:31;6.40;99.90
32502;DHT22;18952;52.516;13.460;2023-01-05T16:16:40;6.40;99.90
32502;DHT22;18952;52.516;13.460;2023-01-05T16:22:18;6.30;99.90
32502;DHT22;18952;52.516;13.460;2023-01-05T16:25:19;6.30;99.90
32502;DHT22;18952;52.516;13.460;2023-01-05T16:27:52;6.30;99.90
32502;DHT22;18952;52.516;13.460;2023-01-05T16:30:38;6.20;99.90
32502;DHT22;18952;52.516;13.460;2023-01-05T16:35:47;6.20;99.90
32502;DHT22;18952;52.516;13.460;2023-01-05T16:38:21;6.20;99.90
32502;DHT22;18952;52.516;13.460;2023-01-05T16:48:47;6.20;99.90
32502;DHT22;18952;52.516;13.460;2023-01-05T16:53:53;6.20;99.90
32502;DHT22;18952;52.516;13.460;2023-01-05T16:58:59;6.20;99.90
32502;DHT22;18952;52.516;13.460;2023-01-05T17:01:44;6.20;99.90
32502;DHT22;18952;52.516;13.460;2023-01-05T17:04:14;6.20;99.90
32502;DHT22;18952;52.516;13.460;2023-01-05T17:06:47;6.20;99.90
32502;DHT22;18952;52.516;13.460;2023-01-05T17:09:28;6.20;99.90
32502;DHT22;18952;52.516;13.460;2023-01-05T17:11:57;6.30;99.90
32502;DHT22;18952;52.516;13.460;2023-01-05T17:14:34;6.20;99.90
32502;DHT22;18952;52.516;13.460;2023-01-05T17:17:01;6.20;99.90
32502;DHT22;18952;52.516;13.460;2023-01-05T17:19:27;6.20;99.90
32502;DHT22;18952;52.516;13.460;2023-01-05T17:21:56;6.10;99.90
32502;DHT22;18952;52.516;13.460;2023-01-05T17:24:25;6.10;99.90
32502;DHT22;18952;52.516;13.460;2023-01-05T17:26:59;6.10;99.90
32502;DHT22;18952;52.516;13.460;2023-01-05T17:29:33;6.00;99.90
32502;DHT22;18952;52.516;13.460;2023-01-05T17:32:03;6.00;99.90
32502;DHT22;18952;52.516;13.460;2023-01-05T17:34:31;6.10;99.90
32502;DHT22;18952;52.516;13.460;2023-01-05T17:36:59;6.00;99.90
32502;DHT22;18952;52.516;13.460;2023-01-05T17:39:27;6.00;99.90
32502;DHT22;18952;52.516;13.460;2023-01-05T17:42:01;6.00;99.90
32502;DHT22;18952;52.516;13.460;2023-01-05T17:44:28;6.10;99.90
32502;DHT22;18952;52.516;13.460;2023-01-05T17:47:00;6.10;99.90
32502;DHT22;18952;52.516;13.460;2023-01-05T17:49:30;6.10;99.90
32502;DHT22;18952;52.516;13.460;2023-01-05T17:52:00;6.10;99.90
32502;DHT22;18952;52.516;13.460;2023-01-05T17:54:38;6.20;99.90
32502;DHT22;18952;52.516;13.460;2023-01-05T17:57:05;6.20;99.90
32502;DHT22;18952;52.516;13.460;2023-01-05T17:59:32;6.20;99.90
32502;DHT22;18952;52.516;13.460;2023-01-05T18:01:59;6.20;99.90
32502;DHT22;18952;52.516;13.460;2023-01-05T18:04:28;6.20;99.90
32502;DHT22;18952;52.516;13.460;2023-01-05T18:06:55;6.20;99.90
32502;DHT22;18952;52.516;13.460;2023-01-05T18:09:22;6.20;99.90
32502;DHT22;18952;52.516;13.460;2023-01-05T18:11:51;6.10;99.90
32502;DHT22;18952;52.516;13.460;2023-01-05T18:14:18;6.10;99.90
32502;DHT22;18952;52.516;13.460;2023-01-05T18:16:51;6.10;99.90
32502;DHT22;18952;52.516;13.460;2023-01-05T18:19:22;6.10;99.90